sensor_id;sensor_type;location;lat;lon;timestamp;P1;durP1;ratioP1;P2;durP2;ratioP2
40541;SDS011;49288;52.194;5.676;2023-12-29T00:01:52;10.02;;;2.63;;
40541;SDS011;49288;52.194;5.676;2023-12-29T00:07:15;15.60;;;3.40;;
40541;SDS011;49288;52.194;5.676;2023-12-29T00:12:21;12.18;;;2.72;;
40541;SDS011;49288;52.194;5.676;2023-12-29T00:17:24;10.13;;;2.95;;
40541;SDS011;49288;52.194;5.676;2023-12-29T00:22:27;23.35;;;4.63;;
40541;SDS011;49288;52.194;5.676;2023-12-29T00:27:30;10.35;;;2.95;;
40541;SDS011;49288;52.194;5.676;2023-12-29T00:32:33;10.55;;;2.92;;
40541;SDS011;49288;52.194;5.676;2023-12-29T00:37:36;14.63;;;3.70;;
40541;SDS011;49288;52.194;5.676;2023-12-29T00:42:38;9.88;;;2.83;;
40541;SDS011;49288;52.194;5.676;2023-12-29T00:47:42;18.58;;;3.80;;
40541;SDS011;49288;52.194;5.676;2023-12-29T00:52:45;19.42;;;3.83;;
40541;SDS011;49288;52.194;5.676;2023-12-29T00:57:47;15.73;;;3.60;;
40541;SDS011;49288;52.194;5.676;2023-12-29T01:02:50;22.55;;;3.95;;
40541;SDS011;49288;52.194;5.676;2023-12-29T01:07:55;17.73;;;3.25;;
40541;SDS011;49288;52.194;5.676;2023-12-29T01:12:58;15.38;;;3.85;;
40541;SDS011;49288;52.194;5.676;2023-12-29T01:18:02;8.93;;;2.37;;
40541;SDS011;49288;52.194;5.676;2023-12-29T01:23:05;27.67;;;5.10;;
40541;SDS011;49288;52.194;5.676;2023-12-29T01:28:08;17.17;;;4.07;;
40541;SDS011;49288;52.194;5.676;2023-12-29T01:33:11;13.95;;;3.22;;
40541;SDS011;49288;52.194;5.676;2023-12-29T01:38:16;21.13;;;4.35;;
40541;SDS011;49288;52.194;5.676;2023-12-29T01:43:20;7.78;;;2.63;;
40541;SDS011;49288;52.194;5.676;2023-12-29T01:48:23;11.00;;;3.15;;
40541;SDS011;49288;52.194;5.676;2023-12-29T01:53:27;17.65;;;4.10;;
40541;SDS011;49288;52.194;5.676;2023-12-29T01:58:45;14.38;;;3.08;;
40541;SDS011;49288;52.194;5.676;2023-12-29T02:03:51;15.65;;;4.03;;
40541;SDS011;49288;52.194;5.676;2023-12-29T02:08:54;10.30;;;3.00;;
40541;SDS011;49288;52.194;5.676;2023-12-29T02:14:00;11.93;;;3.20;;
40541;SDS011;49288;52.194;5.676;2023-12-29T02:19:41;18.08;;;3.92;;
40541;SDS011;49288;52.194;5.676;2023-12-29T02:25:00;13.93;;;3.20;;
40541;SDS011;49288;52.194;5.676;2023-12-29T02:30:20;12.02;;;3.63;;
40541;SDS011;49288;52.194;5.676;2023-12-29T02:35:25;20.55;;;4.03;;
40541;SDS011;49288;52.194;5.676;2023-12-29T02:40:30;11.32;;;3.38;;
40541;SDS011;49288;52.194;5.676;2023-12-29T02:45:33;15.73;;;3.88;;
40541;SDS011;49288;52.194;5.676;2023-12-29T02:50:36;20.15;;;3.50;;
40541;SDS011;49288;52.194;5.676;2023-12-29T02:55:39;18.27;;;4.25;;
40541;SDS011;49288;52.194;5.676;2023-12-29T03:00:42;16.75;;;3.22;;
40541;SDS011;49288;52.194;5.676;2023-12-29T03:05:44;16.13;;;4.03;;
40541;SDS011;49288;52.194;5.676;2023-12-29T03:10:48;15.57;;;3.30;;
40541;SDS011;49288;52.194;5.676;2023-12-29T03:15:50;29.80;;;4.75;;
40541;SDS011;49288;52.194;5.676;2023-12-29T03:20:53;17.67;;;3.97;;
40541;SDS011;49288;52.194;5.676;2023-12-29T03:25:58;14.18;;;3.97;;
40541;SDS011;49288;52.194;5.676;2023-12-29T03:31:01;27.25;;;4.80;;
40541;SDS011;49288;52.194;5.676;2023-12-29T03:36:04;17.75;;;4.60;;
40541;SDS011;49288;52.194;5.676;2023-12-29T03:41:09;23.52;;;4.03;;
40541;SDS011;49288;52.194;5.676;2023-12-29T03:46:18;23.92;;;3.90;;
40541;SDS011;49288;52.194;5.676;2023-12-29T03:51:25;25.70;;;4.20;;
40541;SDS011;49288;52.194;5.676;2023-12-29T03:56:28;22.70;;;3.83;;
40541;SDS011;49288;52.194;5.676;2023-12-29T04:01:33;19.40;;;4.00;;
40541;SDS011;49288;52.194;5.676;2023-12-29T04:06:36;23.27;;;4.65;;
40541;SDS011;49288;52.194;5.676;2023-12-29T04:11:39;25.55;;;4.32;;
40541;SDS011;49288;52.194;5.676;2023-12-29T04:16:42;23.13;;;4.30;;
40541;SDS011;49288;52.194;5.676;2023-12-29T04:21:45;24.10;;;4.68;;
40541;SDS011;49288;52.194;5.676;2023-12-29T04:26:48;27.98;;;5.53;;
40541;SDS011;49288;52.194;5.676;2023-12-29T04:31:51;31.80;;;4.38;;
40541;SDS011;49288;52.194;5.676;2023-12-29T04:36:54;34.03;;;6.65;;
40541;SDS011;49288;52.194;5.676;2023-12-29T04:41:57;25.25;;;4.53;;
40541;SDS011;49288;52.194;5.676;2023-12-29T04:47:01;8.00;;;2.55;;
40541;SDS011;49288;52.194;5.676;2023-12-29T04:52:04;20.92;;;3.95;;
40541;SDS011;49288;52.194;5.676;2023-12-29T04:57:08;34.28;;;4.75;;
40541;SDS011;49288;52.194;5.676;2023-12-29T05:02:12;25.92;;;4.30;;
40541;SDS011;49288;52.194;5.676;2023-12-29T05:07:16;23.42;;;4.72;;
40541;SDS011;49288;52.194;5.676;2023-12-29T05:12:20;13.25;;;2.20;;
40541;SDS011;49288;52.194;5.676;2023-12-29T05:17:23;21.65;;;3.47;;
40541;SDS011;49288;52.194;5.676;2023-12-29T05:22:26;21.50;;;3.83;;
40541;SDS011;49288;52.194;5.676;2023-12-29T05:27:29;27.08;;;5.82;;
40541;SDS011;49288;52.194;5.676;2023-12-29T05:32:51;20.20;;;4.00;;
40541;SDS011;49288;52.194;5.676;2023-12-29T05:37:55;27.25;;;4.03;;
40541;SDS011;49288;52.194;5.676;2023-12-29T05:42:58;19.50;;;2.92;;
40541;SDS011;49288;52.194;5.676;2023-12-29T05:48:01;24.10;;;4.50;;
40541;SDS011;49288;52.194;5.676;2023-12-29T05:53:05;24.60;;;3.17;;
40541;SDS011;49288;52.194;5.676;2023-12-29T05:58:08;29.23;;;3.88;;
40541;SDS011;49288;52.194;5.676;2023-12-29T06:03:11;27.45;;;3.33;;
40541;SDS011;49288;52.194;5.676;2023-12-29T06:08:14;26.80;;;3.90;;
40541;SDS011;49288;52.194;5.676;2023-12-29T06:13:17;20.13;;;3.05;;
40541;SDS011;49288;52.194;5.676;2023-12-29T06:18:20;28.48;;;4.03;;
40541;SDS011;49288;52.194;5.676;2023-12-29T06:23:23;24.58;;;4.40;;
40541;SDS011;49288;52.194;5.676;2023-12-29T06:28:27;20.85;;;4.93;;
40541;SDS011;49288;52.194;5.676;2023-12-29T06:33:30;23.48;;;3.03;;
40541;SDS011;49288;52.194;5.676;2023-12-29T06:38:51;26.77;;;4.95;;
40541;SDS011;49288;52.194;5.676;2023-12-29T06:43:54;17.98;;;3.33;;
40541;SDS011;49288;52.194;5.676;2023-12-29T06:48:57;18.52;;;4.00;;
40541;SDS011;49288;52.194;5.676;2023-12-29T06:54:00;31.77;;;4.75;;
40541;SDS011;49288;52.194;5.676;2023-12-29T06:59:03;13.07;;;2.67;;
40541;SDS011;49288;52.194;5.676;2023-12-29T07:04:07;34.10;;;4.87;;
40541;SDS011;49288;52.194;5.676;2023-12-29T07:09:12;23.13;;;4.18;;
40541;SDS011;49288;52.194;5.676;2023-12-29T07:14:15;21.42;;;3.90;;
40541;SDS011;49288;52.194;5.676;2023-12-29T07:19:18;20.15;;;3.80;;
40541;SDS011;49288;52.194;5.676;2023-12-29T07:24:21;16.95;;;3.45;;
40541;SDS011;49288;52.194;5.676;2023-12-29T07:29:24;8.95;;;3.17;;
40541;SDS011;49288;52.194;5.676;2023-12-29T07:34:26;18.30;;;3.95;;
40541;SDS011;49288;52.194;5.676;2023-12-29T07:39:32;24.35;;;4.68;;
40541;SDS011;49288;52.194;5.676;2023-12-29T07:44:35;18.55;;;5.00;;
40541;SDS011;49288;52.194;5.676;2023-12-29T07:49:38;16.67;;;4.00;;
40541;SDS011;49288;52.194;5.676;2023-12-29T07:54:40;16.42;;;3.50;;
40541;SDS011;49288;52.194;5.676;2023-12-29T07:59:43;13.70;;;4.10;;
40541;SDS011;49288;52.194;5.676;2023-12-29T08:04:48;15.43;;;4.03;;
40541;SDS011;49288;52.194;5.676;2023-12-29T08:09:51;14.07;;;4.47;;
40541;SDS011;49288;52.194;5.676;2023-12-29T08:14:54;10.70;;;3.97;;
40541;SDS011;49288;52.194;5.676;2023-12-29T08:19:58;7.50;;;2.92;;
40541;SDS011;49288;52.194;5.676;2023-12-29T08:25:01;17.05;;;4.72;;
40541;SDS011;49288;52.194;5.676;2023-12-29T08:30:05;11.05;;;4.55;;
40541;SDS011;49288;52.194;5.676;2023-12-29T08:40:13;12.07;;;4.55;;
40541;SDS011;49288;52.194;5.676;2023-12-29T08:45:16;17.58;;;5.35;;
40541;SDS011;49288;52.194;5.676;2023-12-29T08:50:19;17.40;;;4.63;;
40541;SDS011;49288;52.194;5.676;2023-12-29T08:55:24;8.88;;;3.22;;
40541;SDS011;49288;52.194;5.676;2023-12-29T09:00:27;12.73;;;4.90;;
40541;SDS011;49288;52.194;5.676;2023-12-29T09:05:32;15.10;;;4.50;;
40541;SDS011;49288;52.194;5.676;2023-12-29T09:10:35;12.55;;;4.03;;
40541;SDS011;49288;52.194;5.676;2023-12-29T09:15:38;6.88;;;4.00;;
40541;SDS011;49288;52.194;5.676;2023-12-29T09:20:43;18.77;;;5.70;;
40541;SDS011;49288;52.194;5.676;2023-12-29T09:25:46;20.30;;;5.68;;
40541;SDS011;49288;52.194;5.676;2023-12-29T09:30:49;10.38;;;4.32;;
40541;SDS011;49288;52.194;5.676;2023-12-29T09:35:58;17.33;;;5.00;;
40541;SDS011;49288;52.194;5.676;2023-12-29T09:41:04;12.50;;;4.32;;
40541;SDS011;49288;52.194;5.676;2023-12-29T09:46:08;11.48;;;3.40;;
40541;SDS011;49288;52.194;5.676;2023-12-29T09:51:11;16.45;;;4.75;;
40541;SDS011;49288;52.194;5.676;2023-12-29T09:56:15;16.00;;;4.40;;
40541;SDS011;49288;52.194;5.676;2023-12-29T10:01:19;21.07;;;5.93;;
40541;SDS011;49288;52.194;5.676;2023-12-29T10:06:24;20.30;;;5.75;;
40541;SDS011;49288;52.194;5.676;2023-12-29T10:11:27;13.90;;;4.85;;
40541;SDS011;49288;52.194;5.676;2023-12-29T10:16:32;24.38;;;5.07;;
40541;SDS011;49288;52.194;5.676;2023-12-29T10:21:47;13.20;;;4.22;;
40541;SDS011;49288;52.194;5.676;2023-12-29T10:26:55;5.93;;;2.42;;
40541;SDS011;49288;52.194;5.676;2023-12-29T10:31:59;16.27;;;4.60;;
40541;SDS011;49288;52.194;5.676;2023-12-29T10:37:23;10.85;;;4.30;;
40541;SDS011;49288;52.194;5.676;2023-12-29T10:42:26;10.00;;;3.70;;
40541;SDS011;49288;52.194;5.676;2023-12-29T10:47:30;12.35;;;2.97;;
40541;SDS011;49288;52.194;5.676;2023-12-29T10:52:34;27.75;;;4.10;;
40541;SDS011;49288;52.194;5.676;2023-12-29T10:57:59;10.73;;;3.47;;
40541;SDS011;49288;52.194;5.676;2023-12-29T11:03:05;11.50;;;3.75;;
40541;SDS011;49288;52.194;5.676;2023-12-29T11:08:16;15.23;;;3.42;;
40541;SDS011;49288;52.194;5.676;2023-12-29T11:13:22;12.07;;;3.17;;
40541;SDS011;49288;52.194;5.676;2023-12-29T11:18:25;17.95;;;3.88;;
40541;SDS011;49288;52.194;5.676;2023-12-29T11:23:31;11.98;;;4.22;;
40541;SDS011;49288;52.194;5.676;2023-12-29T11:28:33;15.75;;;3.72;;
40541;SDS011;49288;52.194;5.676;2023-12-29T11:33:43;33.38;;;19.60;;
40541;SDS011;49288;52.194;5.676;2023-12-29T11:38:57;17.20;;;7.35;;
40541;SDS011;49288;52.194;5.676;2023-12-29T11:44:07;18.00;;;3.60;;
40541;SDS011;49288;52.194;5.676;2023-12-29T11:49:10;19.67;;;3.40;;
40541;SDS011;49288;52.194;5.676;2023-12-29T11:54:23;16.60;;;3.15;;
40541;SDS011;49288;52.194;5.676;2023-12-29T11:59:28;5.82;;;2.00;;
40541;SDS011;49288;52.194;5.676;2023-12-29T12:09:39;13.13;;;2.67;;
40541;SDS011;49288;52.194;5.676;2023-12-29T12:14:45;16.60;;;3.08;;
40541;SDS011;49288;52.194;5.676;2023-12-29T12:19:51;19.75;;;3.33;;
40541;SDS011;49288;52.194;5.676;2023-12-29T12:24:56;20.95;;;3.17;;
40541;SDS011;49288;52.194;5.676;2023-12-29T12:30:02;8.98;;;2.55;;
40541;SDS011;49288;52.194;5.676;2023-12-29T12:35:12;23.02;;;3.40;;
40541;SDS011;49288;52.194;5.676;2023-12-29T12:40:25;18.60;;;3.30;;
40541;SDS011;49288;52.194;5.676;2023-12-29T12:45:33;17.15;;;3.35;;
40541;SDS011;49288;52.194;5.676;2023-12-29T12:50:41;12.18;;;2.50;;
40541;SDS011;49288;52.194;5.676;2023-12-29T12:55:49;17.42;;;2.88;;
40541;SDS011;49288;52.194;5.676;2023-12-29T13:00:52;20.58;;;3.47;;
40541;SDS011;49288;52.194;5.676;2023-12-29T13:05:58;23.70;;;3.22;;
40541;SDS011;49288;52.194;5.676;2023-12-29T13:11:03;6.25;;;2.53;;
40541;SDS011;49288;52.194;5.676;2023-12-29T13:16:06;23.42;;;3.58;;
40541;SDS011;49288;52.194;5.676;2023-12-29T13:21:09;26.80;;;3.20;;
40541;SDS011;49288;52.194;5.676;2023-12-29T13:26:12;22.25;;;3.95;;
40541;SDS011;49288;52.194;5.676;2023-12-29T13:31:16;24.77;;;3.25;;
40541;SDS011;49288;52.194;5.676;2023-12-29T13:41:26;21.13;;;3.15;;
40541;SDS011;49288;52.194;5.676;2023-12-29T13:46:30;20.02;;;3.33;;
40541;SDS011;49288;52.194;5.676;2023-12-29T13:51:36;28.33;;;3.50;;
40541;SDS011;49288;52.194;5.676;2023-12-29T13:56:50;25.48;;;2.78;;
40541;SDS011;49288;52.194;5.676;2023-12-29T14:01:54;28.47;;;3.20;;
40541;SDS011;49288;52.194;5.676;2023-12-29T14:07:06;24.83;;;3.33;;
40541;SDS011;49288;52.194;5.676;2023-12-29T14:17:19;24.70;;;3.08;;
40541;SDS011;49288;52.194;5.676;2023-12-29T14:22:23;27.15;;;4.40;;
40541;SDS011;49288;52.194;5.676;2023-12-29T14:27:27;22.48;;;3.88;;
40541;SDS011;49288;52.194;5.676;2023-12-29T14:32:32;26.08;;;3.88;;
40541;SDS011;49288;52.194;5.676;2023-12-29T14:37:36;29.48;;;3.72;;
40541;SDS011;49288;52.194;5.676;2023-12-29T14:42:39;35.78;;;4.18;;
40541;SDS011;49288;52.194;5.676;2023-12-29T14:47:42;18.93;;;3.10;;
40541;SDS011;49288;52.194;5.676;2023-12-29T14:52:47;18.35;;;3.42;;
40541;SDS011;49288;52.194;5.676;2023-12-29T14:57:50;20.77;;;2.85;;
40541;SDS011;49288;52.194;5.676;2023-12-29T15:02:53;20.88;;;3.58;;
40541;SDS011;49288;52.194;5.676;2023-12-29T15:07:55;19.73;;;3.42;;
40541;SDS011;49288;52.194;5.676;2023-12-29T15:12:58;17.50;;;4.07;;
40541;SDS011;49288;52.194;5.676;2023-12-29T15:18:03;25.38;;;3.75;;
40541;SDS011;49288;52.194;5.676;2023-12-29T15:23:06;25.75;;;4.55;;
40541;SDS011;49288;52.194;5.676;2023-12-29T15:28:12;19.95;;;3.60;;
40541;SDS011;49288;52.194;5.676;2023-12-29T15:33:16;16.25;;;2.85;;
40541;SDS011;49288;52.194;5.676;2023-12-29T15:38:19;22.60;;;3.35;;
40541;SDS011;49288;52.194;5.676;2023-12-29T15:43:23;15.30;;;2.83;;
40541;SDS011;49288;52.194;5.676;2023-12-29T15:48:28;16.92;;;3.15;;
40541;SDS011;49288;52.194;5.676;2023-12-29T15:53:31;16.73;;;3.05;;
40541;SDS011;49288;52.194;5.676;2023-12-29T15:58:35;22.00;;;4.43;;
40541;SDS011;49288;52.194;5.676;2023-12-29T16:03:39;10.25;;;3.10;;
40541;SDS011;49288;52.194;5.676;2023-12-29T16:08:41;17.02;;;3.58;;
40541;SDS011;49288;52.194;5.676;2023-12-29T16:13:44;12.18;;;3.22;;
40541;SDS011;49288;52.194;5.676;2023-12-29T16:18:47;18.55;;;3.35;;
40541;SDS011;49288;52.194;5.676;2023-12-29T16:23:50;23.85;;;3.58;;
40541;SDS011;49288;52.194;5.676;2023-12-29T16:28:53;19.00;;;3.38;;
40541;SDS011;49288;52.194;5.676;2023-12-29T16:33:56;12.75;;;3.70;;
40541;SDS011;49288;52.194;5.676;2023-12-29T16:38:59;19.63;;;4.85;;
40541;SDS011;49288;52.194;5.676;2023-12-29T16:44:04;26.02;;;6.18;;
40541;SDS011;49288;52.194;5.676;2023-12-29T16:49:11;7.82;;;2.50;;
40541;SDS011;49288;52.194;5.676;2023-12-29T16:54:14;6.05;;;1.92;;
40541;SDS011;49288;52.194;5.676;2023-12-29T16:59:17;8.63;;;2.53;;
40541;SDS011;49288;52.194;5.676;2023-12-29T17:04:22;10.70;;;2.13;;
40541;SDS011;49288;52.194;5.676;2023-12-29T17:09:26;9.40;;;2.38;;
40541;SDS011;49288;52.194;5.676;2023-12-29T17:14:32;10.10;;;1.90;;
40541;SDS011;49288;52.194;5.676;2023-12-29T17:19:35;6.82;;;2.15;;
40541;SDS011;49288;52.194;5.676;2023-12-29T17:24:38;7.70;;;2.83;;
40541;SDS011;49288;52.194;5.676;2023-12-29T17:29:41;15.55;;;5.95;;
40541;SDS011;49288;52.194;5.676;2023-12-29T17:34:44;23.40;;;10.40;;
40541;SDS011;49288;52.194;5.676;2023-12-29T17:39:47;34.85;;;18.90;;
40541;SDS011;49288;52.194;5.676;2023-12-29T17:44:50;35.13;;;18.38;;
40541;SDS011;49288;52.194;5.676;2023-12-29T17:49:53;30.50;;;14.90;;
40541;SDS011;49288;52.194;5.676;2023-12-29T17:54:57;14.93;;;6.95;;
40541;SDS011;49288;52.194;5.676;2023-12-29T18:00:01;12.38;;;4.57;;
40541;SDS011;49288;52.194;5.676;2023-12-29T18:10:10;10.83;;;3.33;;
40541;SDS011;49288;52.194;5.676;2023-12-29T18:15:12;8.43;;;3.33;;
40541;SDS011;49288;52.194;5.676;2023-12-29T18:20:18;6.50;;;3.10;;
40541;SDS011;49288;52.194;5.676;2023-12-29T18:25:26;10.95;;;4.25;;
40541;SDS011;49288;52.194;5.676;2023-12-29T18:30:32;15.00;;;5.10;;
40541;SDS011;49288;52.194;5.676;2023-12-29T18:35:35;13.32;;;3.70;;
40541;SDS011;49288;52.194;5.676;2023-12-29T18:40:40;11.27;;;3.53;;
40541;SDS011;49288;52.194;5.676;2023-12-29T18:45:43;12.23;;;4.50;;
40541;SDS011;49288;52.194;5.676;2023-12-29T18:50:46;17.33;;;6.40;;
40541;SDS011;49288;52.194;5.676;2023-12-29T18:55:51;13.13;;;5.25;;
40541;SDS011;49288;52.194;5.676;2023-12-29T19:00:55;15.23;;;5.57;;
40541;SDS011;49288;52.194;5.676;2023-12-29T19:06:05;17.58;;;6.63;;
40541;SDS011;49288;52.194;5.676;2023-12-29T19:11:07;15.00;;;5.45;;
40541;SDS011;49288;52.194;5.676;2023-12-29T19:16:18;13.85;;;6.72;;
40541;SDS011;49288;52.194;5.676;2023-12-29T19:21:22;15.23;;;5.80;;
40541;SDS011;49288;52.194;5.676;2023-12-29T19:26:25;12.33;;;6.00;;
40541;SDS011;49288;52.194;5.676;2023-12-29T19:31:29;17.13;;;6.95;;
40541;SDS011;49288;52.194;5.676;2023-12-29T19:36:33;29.83;;;12.70;;
40541;SDS011;49288;52.194;5.676;2023-12-29T19:41:36;41.67;;;15.57;;
40541;SDS011;49288;52.194;5.676;2023-12-29T19:46:39;29.55;;;12.02;;
40541;SDS011;49288;52.194;5.676;2023-12-29T19:51:43;19.40;;;8.93;;
40541;SDS011;49288;52.194;5.676;2023-12-29T19:56:46;19.00;;;8.77;;
40541;SDS011;49288;52.194;5.676;2023-12-29T20:01:56;25.88;;;9.43;;
40541;SDS011;49288;52.194;5.676;2023-12-29T20:06:59;19.73;;;8.40;;
40541;SDS011;49288;52.194;5.676;2023-12-29T20:12:03;26.43;;;8.67;;
40541;SDS011;49288;52.194;5.676;2023-12-29T20:17:06;18.35;;;7.43;;
40541;SDS011;49288;52.194;5.676;2023-12-29T20:22:10;23.73;;;9.40;;
40541;SDS011;49288;52.194;5.676;2023-12-29T20:27:13;28.13;;;9.20;;
40541;SDS011;49288;52.194;5.676;2023-12-29T20:32:16;26.70;;;9.65;;
40541;SDS011;49288;52.194;5.676;2023-12-29T20:37:18;31.00;;;12.02;;
40541;SDS011;49288;52.194;5.676;2023-12-29T20:42:21;35.63;;;14.00;;
40541;SDS011;49288;52.194;5.676;2023-12-29T20:47:24;31.25;;;12.02;;
40541;SDS011;49288;52.194;5.676;2023-12-29T20:52:27;29.15;;;10.10;;
40541;SDS011;49288;52.194;5.676;2023-12-29T20:57:30;20.75;;;7.22;;
40541;SDS011;49288;52.194;5.676;2023-12-29T21:02:33;16.23;;;4.88;;
40541;SDS011;49288;52.194;5.676;2023-12-29T21:07:37;7.57;;;2.83;;
40541;SDS011;49288;52.194;5.676;2023-12-29T21:12:40;8.20;;;3.10;;
40541;SDS011;49288;52.194;5.676;2023-12-29T21:17:43;8.35;;;2.40;;
40541;SDS011;49288;52.194;5.676;2023-12-29T21:22:46;6.03;;;2.47;;
40541;SDS011;49288;52.194;5.676;2023-12-29T21:27:51;7.65;;;2.30;;
40541;SDS011;49288;52.194;5.676;2023-12-29T21:32:55;6.40;;;2.15;;
40541;SDS011;49288;52.194;5.676;2023-12-29T21:43:01;11.05;;;2.58;;
40541;SDS011;49288;52.194;5.676;2023-12-29T21:48:04;7.05;;;2.30;;
40541;SDS011;49288;52.194;5.676;2023-12-29T21:53:07;5.32;;;2.42;;
40541;SDS011;49288;52.194;5.676;2023-12-29T21:58:11;6.28;;;2.40;;
40541;SDS011;49288;52.194;5.676;2023-12-29T22:03:20;6.43;;;2.45;;
40541;SDS011;49288;52.194;5.676;2023-12-29T22:08:25;5.65;;;2.78;;
40541;SDS011;49288;52.194;5.676;2023-12-29T22:13:30;9.77;;;2.20;;
40541;SDS011;49288;52.194;5.676;2023-12-29T22:18:33;13.57;;;2.75;;
40541;SDS011;49288;52.194;5.676;2023-12-29T22:23:36;14.52;;;2.90;;
40541;SDS011;49288;52.194;5.676;2023-12-29T22:28:40;12.00;;;2.78;;
40541;SDS011;49288;52.194;5.676;2023-12-29T22:33:44;9.48;;;3.10;;
40541;SDS011;49288;52.194;5.676;2023-12-29T22:38:48;10.27;;;3.10;;
40541;SDS011;49288;52.194;5.676;2023-12-29T22:43:51;12.45;;;2.50;;
40541;SDS011;49288;52.194;5.676;2023-12-29T22:48:54;15.57;;;3.03;;
40541;SDS011;49288;52.194;5.676;2023-12-29T22:53:57;7.65;;;2.38;;
40541;SDS011;49288;52.194;5.676;2023-12-29T22:59:00;15.00;;;2.63;;
40541;SDS011;49288;52.194;5.676;2023-12-29T23:04:02;14.15;;;2.90;;
40541;SDS011;49288;52.194;5.676;2023-12-29T23:09:06;11.73;;;3.13;;
40541;SDS011;49288;52.194;5.676;2023-12-29T23:14:09;14.60;;;3.20;;
40541;SDS011;49288;52.194;5.676;2023-12-29T23:19:12;12.38;;;3.70;;
40541;SDS011;49288;52.194;5.676;2023-12-29T23:24:14;26.45;;;4.47;;
40541;SDS011;49288;52.194;5.676;2023-12-29T23:29:17;12.43;;;2.55;;
40541;SDS011;49288;52.194;5.676;2023-12-29T23:34:20;9.30;;;2.60;;
40541;SDS011;49288;52.194;5.676;2023-12-29T23:39:23;7.32;;;2.58;;
40541;SDS011;49288;52.194;5.676;2023-12-29T23:44:26;10.40;;;2.90;;
40541;SDS011;49288;52.194;5.676;2023-12-29T23:49:29;15.67;;;3.67;;
40541;SDS011;49288;52.194;5.676;2023-12-29T23:54:33;11.53;;;2.77;;
40541;SDS011;49288;52.194;5.676;2023-12-29T23:59:37;19.30;;;3.40;;
